sensor_id;sensor_type;location;lat;lon;timestamp;pressure;altitude;pressure_sealevel;temperature;humidity
2000;BME280;1001;48.87406500;9.59633600;2023-01-30T00:01:16;95579.34;;;-3.10;100.00
2000;BME280;1001;48.87406500;9.59633600;2023-01-30T00:03:44;95580.97;;;-3.09;100.00
2000;BME280;1001;48.87406500;9.59633600;2023-01-30T00:06:11;95571.16;;;-3.13;100.00
2000;BME280;1001;48.87406500;9.59633600;2023-01-30T00:08:39;95567.25;;;-3.08;100.00
2000;BME280;1001;48.87406500;9.59633600;2023-01-30T00:11:09;95560.78;;;-3.02;100.00
2000;BME280;1001;48.87406500;9.59633600;2023-01-30T00:13:37;95555.53;;;-3.01;100.00
2000;BME280;1001;48.87406500;9.59633600;2023-01-30T00:16:04;95549.63;;;-3.01;100.00
2000;BME280;1001;48.87406500;9.59633600;2023-01-30T00:18:33;95535.88;;;-3.00;100.00
2000;BME280;1001;48.87406500;9.59633600;2023-01-30T00:21:02;95537.75;;;-3.02;100.00
2000;BME280;1001;48.87406500;9.59633600;2023-01-30T00:23:32;95530.09;;;-3.02;100.00
2000;BME280;1001;48.87406500;9.59633600;2023-01-30T00:26:00;95545.31;;;-3.01;100.00
2000;BME280;1001;48.87406500;9.59633600;2023-01-30T00:28:27;95543.69;;;-3.02;100.00
2000;BME280;1001;48.87406500;9.59633600;2023-01-30T00:30:54;95536.94;;;-3.03;100.00
2000;BME280;1001;48.87406500;9.59633600;2023-01-30T00:33:22;95523.63;;;-3.06;100.00
2000;BME280;1001;48.87406500;9.59633600;2023-01-30T00:35:50;95527.94;;;-3.07;100.00
2000;BME280;1001;48.87406500;9.59633600;2023-01-30T00:38:17;95520.16;;;-3.05;100.00
2000;BME280;1001;48.87406500;9.59633600;2023-01-30T00:40:45;95521.59;;;-3.03;100.00
2000;BME280;1001;48.87406500;9.59633600;2023-01-30T00:43:14;95516.47;;;-3.12;100.00
2000;BME280;1001;48.87406500;9.59633600;2023-01-30T00:45:59;95525.94;;;-3.13;100.00
2000;BME280;1001;48.87406500;9.59633600;2023-01-30T00:48:44;95520.81;;;-3.13;100.00
2000;BME280;1001;48.87406500;9.59633600;2023-01-30T00:51:11;95523.22;;;-3.11;100.00
2000;BME280;1001;48.87406500;9.59633600;2023-01-30T00:53:38;95541.13;;;-3.11;100.00
2000;BME280;1001;48.87406500;9.59633600;2023-01-30T00:56:05;95540.59;;;-3.15;100.00
2000;BME280;1001;48.87406500;9.59633600;2023-01-30T00:58:33;95541.69;;;-3.17;100.00
2000;BME280;1001;48.87406500;9.59633600;2023-01-30T01:01:00;95549.34;;;-3.17;100.00
2000;BME280;1001;48.87406500;9.59633600;2023-01-30T01:03:27;95547.56;;;-3.17;100.00
2000;BME280;1001;48.87406500;9.59633600;2023-01-30T01:05:53;95553.66;;;-3.18;100.00
2000;BME280;1001;48.87406500;9.59633600;2023-01-30T01:08:20;95567.63;;;-3.12;100.00
2000;BME280;1001;48.87406500;9.59633600;2023-01-30T01:10:47;95573.31;;;-3.09;100.00
2000;BME280;1001;48.87406500;9.59633600;2023-01-30T01:13:13;95581.91;;;-3.00;100.00
2000;BME280;1001;48.87406500;9.59633600;2023-01-30T01:15:41;95584.06;;;-2.96;100.00
2000;BME280;1001;48.87406500;9.59633600;2023-01-30T01:18:08;95581.50;;;-2.96;100.00
2000;BME280;1001;48.87406500;9.59633600;2023-01-30T01:20:34;95582.06;;;-2.92;100.00
2000;BME280;1001;48.87406500;9.59633600;2023-01-30T01:23:01;95577.47;;;-2.89;100.00
2000;BME280;1001;48.87406500;9.59633600;2023-01-30T01:25:28;95574.22;;;-2.91;100.00
2000;BME280;1001;48.87406500;9.59633600;2023-01-30T01:27:54;95581.91;;;-2.91;100.00
2000;BME280;1001;48.87406500;9.59633600;2023-01-30T01:30:21;95597.00;;;-2.88;100.00
2000;BME280;1001;48.87406500;9.59633600;2023-01-30T01:32:49;95582.56;;;-2.89;100.00
2000;BME280;1001;48.87406500;9.59633600;2023-01-30T01:35:16;95583.78;;;-2.93;100.00
2000;BME280;1001;48.87406500;9.59633600;2023-01-30T01:37:43;95578.56;;;-2.91;100.00
2000;BME280;1001;48.87406500;9.59633600;2023-01-30T01:40:15;95592.81;;;-2.79;100.00
2000;BME280;1001;48.87406500;9.59633600;2023-01-30T01:43:01;95586.09;;;-2.70;100.00
2000;BME280;1001;48.87406500;9.59633600;2023-01-30T01:45:28;95589.06;;;-2.65;100.00
2000;BME280;1001;48.87406500;9.59633600;2023-01-30T01:48:01;95577.31;;;-2.58;100.00
2000;BME280;1001;48.87406500;9.59633600;2023-01-30T01:50:37;95565.34;;;-2.58;100.00
2000;BME280;1001;48.87406500;9.59633600;2023-01-30T01:53:06;95569.63;;;-2.49;100.00
2000;BME280;1001;48.87406500;9.59633600;2023-01-30T01:55:33;95584.69;;;-2.46;100.00
2000;BME280;1001;48.87406500;9.59633600;2023-01-30T01:58:03;95577.41;;;-2.41;100.00
2000;BME280;1001;48.87406500;9.59633600;2023-01-30T02:00:31;95561.34;;;-2.33;100.00
2000;BME280;1001;48.87406500;9.59633600;2023-01-30T02:03:02;95579.28;;;-2.33;100.00
2000;BME280;1001;48.87406500;9.59633600;2023-01-30T02:05:33;95575.41;;;-2.37;100.00
2000;BME280;1001;48.87406500;9.59633600;2023-01-30T02:08:03;95583.88;;;-2.37;100.00
2000;BME280;1001;48.87406500;9.59633600;2023-01-30T02:10:38;95582.50;;;-2.31;100.00
2000;BME280;1001;48.87406500;9.59633600;2023-01-30T02:13:05;95574.56;;;-2.28;100.00
2000;BME280;1001;48.87406500;9.59633600;2023-01-30T02:15:32;95568.53;;;-2.37;100.00
2000;BME280;1001;48.87406500;9.59633600;2023-01-30T02:18:00;95576.22;;;-2.37;100.00
2000;BME280;1001;48.87406500;9.59633600;2023-01-30T02:20:35;95566.63;;;-2.35;100.00
2000;BME280;1001;48.87406500;9.59633600;2023-01-30T02:23:48;95565.97;;;-2.37;100.00
2000;BME280;1001;48.87406500;9.59633600;2023-01-30T02:29:54;95568.63;;;-2.29;100.00
2000;BME280;1001;48.87406500;9.59633600;2023-01-30T02:32:32;95547.47;;;-2.31;100.00
2000;BME280;1001;48.87406500;9.59633600;2023-01-30T02:35:04;95526.13;;;-2.22;100.00
2000;BME280;1001;48.87406500;9.59633600;2023-01-30T02:37:46;95526.41;;;-2.25;100.00
2000;BME280;1001;48.87406500;9.59633600;2023-01-30T02:40:27;95535.88;;;-2.25;100.00
2000;BME280;1001;48.87406500;9.59633600;2023-01-30T02:43:03;95538.31;;;-2.33;100.00
2000;BME280;1001;48.87406500;9.59633600;2023-01-30T02:45:34;95530.91;;;-2.36;100.00
2000;BME280;1001;48.87406500;9.59633600;2023-01-30T02:48:05;95520.25;;;-2.32;100.00
2000;BME280;1001;48.87406500;9.59633600;2023-01-30T02:50:34;95509.78;;;-2.48;100.00
2000;BME280;1001;48.87406500;9.59633600;2023-01-30T02:53:03;95518.00;;;-2.44;100.00
2000;BME280;1001;48.87406500;9.59633600;2023-01-30T02:55:30;95513.31;;;-2.49;100.00
2000;BME280;1001;48.87406500;9.59633600;2023-01-30T02:57:57;95509.78;;;-2.48;100.00
2000;BME280;1001;48.87406500;9.59633600;2023-01-30T03:00:33;95513.56;;;-2.42;100.00
2000;BME280;1001;48.87406500;9.59633600;2023-01-30T03:03:20;95510.03;;;-2.41;100.00
2000;BME280;1001;48.87406500;9.59633600;2023-01-30T03:06:11;95518.88;;;-2.26;100.00
2000;BME280;1001;48.87406500;9.59633600;2023-01-30T03:08:49;95524.28;;;-2.29;100.00
2000;BME280;1001;48.87406500;9.59633600;2023-01-30T03:11:23;95516.16;;;-2.25;100.00
2000;BME280;1001;48.87406500;9.59633600;2023-01-30T03:13:54;95495.84;;;-2.26;100.00
2000;BME280;1001;48.87406500;9.59633600;2023-01-30T03:16:26;95493.94;;;-2.24;100.00
2000;BME280;1001;48.87406500;9.59633600;2023-01-30T03:18:58;95485.97;;;-2.21;100.00
2000;BME280;1001;48.87406500;9.59633600;2023-01-30T03:21:25;95474.38;;;-2.16;100.00
2000;BME280;1001;48.87406500;9.59633600;2023-01-30T03:23:52;95477.97;;;-2.09;100.00
2000;BME280;1001;48.87406500;9.59633600;2023-01-30T03:26:21;95440.16;;;-2.24;100.00
2000;BME280;1001;48.87406500;9.59633600;2023-01-30T03:28:49;95450.28;;;-2.23;100.00
2000;BME280;1001;48.87406500;9.59633600;2023-01-30T03:31:17;95419.00;;;-2.26;100.00
2000;BME280;1001;48.87406500;9.59633600;2023-01-30T03:33:43;95412.03;;;-2.34;100.00
2000;BME280;1001;48.87406500;9.59633600;2023-01-30T03:36:11;95403.34;;;-2.50;100.00
2000;BME280;1001;48.87406500;9.59633600;2023-01-30T03:38:38;95394.56;;;-2.65;100.00
2000;BME280;1001;48.87406500;9.59633600;2023-01-30T03:41:05;95404.41;;;-2.70;100.00
2000;BME280;1001;48.87406500;9.59633600;2023-01-30T03:43:31;95409.91;;;-2.65;100.00
2000;BME280;1001;48.87406500;9.59633600;2023-01-30T03:45:58;95427.63;;;-2.54;100.00
2000;BME280;1001;48.87406500;9.59633600;2023-01-30T03:48:25;95429.50;;;-2.47;100.00
2000;BME280;1001;48.87406500;9.59633600;2023-01-30T03:50:52;95436.59;;;-2.41;100.00
2000;BME280;1001;48.87406500;9.59633600;2023-01-30T03:53:20;95432.66;;;-2.35;100.00
2000;BME280;1001;48.87406500;9.59633600;2023-01-30T03:55:47;95437.59;;;-2.24;100.00
2000;BME280;1001;48.87406500;9.59633600;2023-01-30T03:58:13;95450.34;;;-2.15;100.00
2000;BME280;1001;48.87406500;9.59633600;2023-01-30T04:00:40;95432.16;;;-2.12;100.00
2000;BME280;1001;48.87406500;9.59633600;2023-01-30T04:03:07;95432.53;;;-2.07;100.00
2000;BME280;1001;48.87406500;9.59633600;2023-01-30T04:05:33;95420.53;;;-2.06;100.00
2000;BME280;1001;48.87406500;9.59633600;2023-01-30T04:08:00;95423.44;;;-2.01;100.00
2000;BME280;1001;48.87406500;9.59633600;2023-01-30T04:10:28;95423.03;;;-1.96;100.00
2000;BME280;1001;48.87406500;9.59633600;2023-01-30T04:12:54;95427.63;;;-2.00;100.00
2000;BME280;1001;48.87406500;9.59633600;2023-01-30T04:15:21;95423.03;;;-1.96;100.00
2000;BME280;1001;48.87406500;9.59633600;2023-01-30T04:17:47;95433.19;;;-1.87;100.00
2000;BME280;1001;48.87406500;9.59633600;2023-01-30T04:20:15;95440.38;;;-1.90;100.00
2000;BME280;1001;48.87406500;9.59633600;2023-01-30T04:22:41;95437.66;;;-1.89;100.00
2000;BME280;1001;48.87406500;9.59633600;2023-01-30T04:25:08;95446.44;;;-1.91;100.00
2000;BME280;1001;48.87406500;9.59633600;2023-01-30T04:27:36;95447.25;;;-1.91;100.00
2000;BME280;1001;48.87406500;9.59633600;2023-01-30T04:30:04;95431.44;;;-1.86;100.00
2000;BME280;1001;48.87406500;9.59633600;2023-01-30T04:32:30;95435.25;;;-1.90;100.00
2000;BME280;1001;48.87406500;9.59633600;2023-01-30T04:34:57;95405.31;;;-1.90;100.00
2000;BME280;1001;48.87406500;9.59633600;2023-01-30T04:37:24;95405.00;;;-1.87;100.00
2000;BME280;1001;48.87406500;9.59633600;2023-01-30T04:39:50;95410.13;;;-1.87;100.00
2000;BME280;1001;48.87406500;9.59633600;2023-01-30T04:42:17;95393.31;;;-1.89;100.00
2000;BME280;1001;48.87406500;9.59633600;2023-01-30T04:44:45;95407.72;;;-1.88;100.00
2000;BME280;1001;48.87406500;9.59633600;2023-01-30T04:47:11;95411.91;;;-1.87;100.00
2000;BME280;1001;48.87406500;9.59633600;2023-01-30T04:49:38;95414.91;;;-1.92;100.00
2000;BME280;1001;48.87406500;9.59633600;2023-01-30T04:52:04;95414.84;;;-1.82;100.00
2000;BME280;1001;48.87406500;9.59633600;2023-01-30T04:54:31;95408.09;;;-1.83;100.00
2000;BME280;1001;48.87406500;9.59633600;2023-01-30T04:56:57;95398.94;;;-1.86;100.00
2000;BME280;1001;48.87406500;9.59633600;2023-01-30T04:59:24;95403.91;;;-1.84;100.00
2000;BME280;1001;48.87406500;9.59633600;2023-01-30T05:01:52;95412.28;;;-1.82;100.00
2000;BME280;1001;48.87406500;9.59633600;2023-01-30T05:04:19;95414.69;;;-1.81;100.00
2000;BME280;1001;48.87406500;9.59633600;2023-01-30T05:06:46;95423.25;;;-1.72;100.00
2000;BME280;1001;48.87406500;9.59633600;2023-01-30T05:09:13;95410.31;;;-1.71;100.00
2000;BME280;1001;48.87406500;9.59633600;2023-01-30T05:11:39;95414.47;;;-1.70;100.00
2000;BME280;1001;48.87406500;9.59633600;2023-01-30T05:14:06;95389.66;;;-1.69;100.00
2000;BME280;1001;48.87406500;9.59633600;2023-01-30T05:16:33;95396.16;;;-1.75;100.00
2000;BME280;1001;48.87406500;9.59633600;2023-01-30T05:19:01;95385.78;;;-1.73;100.00
2000;BME280;1001;48.87406500;9.59633600;2023-01-30T05:21:27;95378.38;;;-1.76;100.00
2000;BME280;1001;48.87406500;9.59633600;2023-01-30T05:23:54;95390.75;;;-1.72;100.00
2000;BME280;1001;48.87406500;9.59633600;2023-01-30T05:26:21;95395.59;;;-1.69;100.00
2000;BME280;1001;48.87406500;9.59633600;2023-01-30T05:28:51;95391.03;;;-1.75;100.00
2000;BME280;1001;48.87406500;9.59633600;2023-01-30T05:31:18;95393.47;;;-1.73;100.00
2000;BME280;1001;48.87406500;9.59633600;2023-01-30T05:33:46;95392.22;;;-1.69;100.00
2000;BME280;1001;48.87406500;9.59633600;2023-01-30T05:36:16;95389.38;;;-1.66;100.00
2000;BME280;1001;48.87406500;9.59633600;2023-01-30T05:38:43;95366.88;;;-1.72;100.00
2000;BME280;1001;48.87406500;9.59633600;2023-01-30T05:41:11;95369.34;;;-1.63;100.00
2000;BME280;1001;48.87406500;9.59633600;2023-01-30T05:43:38;95356.47;;;-1.71;100.00
2000;BME280;1001;48.87406500;9.59633600;2023-01-30T05:46:06;95366.22;;;-1.57;100.00
2000;BME280;1001;48.87406500;9.59633600;2023-01-30T05:48:33;95370.81;;;-1.60;100.00
2000;BME280;1001;48.87406500;9.59633600;2023-01-30T05:50:59;95369.06;;;-1.60;100.00
2000;BME280;1001;48.87406500;9.59633600;2023-01-30T05:53:29;95377.03;;;-1.63;100.00
2000;BME280;1001;48.87406500;9.59633600;2023-01-30T05:55:59;95375.00;;;-1.59;100.00
2000;BME280;1001;48.87406500;9.59633600;2023-01-30T05:58:27;95374.19;;;-1.60;100.00
2000;BME280;1001;48.87406500;9.59633600;2023-01-30T06:00:53;95381.44;;;-1.55;100.00
2000;BME280;1001;48.87406500;9.59633600;2023-01-30T06:03:20;95372.19;;;-1.48;100.00
2000;BME280;1001;48.87406500;9.59633600;2023-01-30T06:05:47;95370.91;;;-1.52;100.00
2000;BME280;1001;48.87406500;9.59633600;2023-01-30T06:08:13;95355.06;;;-1.48;100.00
2000;BME280;1001;48.87406500;9.59633600;2023-01-30T06:10:41;95358.66;;;-1.58;100.00
2000;BME280;1001;48.87406500;9.59633600;2023-01-30T06:13:08;95351.78;;;-1.58;100.00
2000;BME280;1001;48.87406500;9.59633600;2023-01-30T06:15:35;95342.31;;;-1.57;100.00
2000;BME280;1001;48.87406500;9.59633600;2023-01-30T06:18:02;95334.78;;;-1.59;100.00
2000;BME280;1001;48.87406500;9.59633600;2023-01-30T06:20:28;95345.47;;;-1.63;100.00
2000;BME280;1001;48.87406500;9.59633600;2023-01-30T06:22:55;95349.38;;;-1.59;100.00
2000;BME280;1001;48.87406500;9.59633600;2023-01-30T06:25:21;95345.34;;;-1.62;100.00
2000;BME280;1001;48.87406500;9.59633600;2023-01-30T06:27:49;95341.50;;;-1.58;100.00
2000;BME280;1001;48.87406500;9.59633600;2023-01-30T06:30:16;95336.22;;;-1.56;100.00
2000;BME280;1001;48.87406500;9.59633600;2023-01-30T06:32:43;95346.66;;;-1.58;100.00
2000;BME280;1001;48.87406500;9.59633600;2023-01-30T06:35:10;95335.91;;;-1.61;100.00
2000;BME280;1001;48.87406500;9.59633600;2023-01-30T06:37:36;95341.97;;;-1.62;100.00
2000;BME280;1001;48.87406500;9.59633600;2023-01-30T06:40:03;95350.00;;;-1.57;100.00
2000;BME280;1001;48.87406500;9.59633600;2023-01-30T06:42:30;95345.16;;;-1.43;100.00
2000;BME280;1001;48.87406500;9.59633600;2023-01-30T06:44:58;95348.19;;;-1.47;100.00
2000;BME280;1001;48.87406500;9.59633600;2023-01-30T06:47:24;95346.28;;;-1.45;100.00
2000;BME280;1001;48.87406500;9.59633600;2023-01-30T06:49:51;95352.84;;;-1.43;100.00
2000;BME280;1001;48.87406500;9.59633600;2023-01-30T06:52:18;95357.81;;;-1.41;100.00
2000;BME280;1001;48.87406500;9.59633600;2023-01-30T06:54:44;95355.09;;;-1.40;100.00
2000;BME280;1001;48.87406500;9.59633600;2023-01-30T06:57:11;95356.72;;;-1.39;100.00
2000;BME280;1001;48.87406500;9.59633600;2023-01-30T06:59:37;95339.28;;;-1.35;100.00
2000;BME280;1001;48.87406500;9.59633600;2023-01-30T07:02:05;95335.59;;;-1.32;100.00
2000;BME280;1001;48.87406500;9.59633600;2023-01-30T07:04:32;95358.03;;;-1.34;100.00
2000;BME280;1001;48.87406500;9.59633600;2023-01-30T07:06:59;95353.41;;;-1.31;100.00
2000;BME280;1001;48.87406500;9.59633600;2023-01-30T07:09:25;95347.31;;;-1.30;100.00
2000;BME280;1001;48.87406500;9.59633600;2023-01-30T07:11:52;95353.63;;;-1.24;100.00
2000;BME280;1001;48.87406500;9.59633600;2023-01-30T07:14:19;95356.81;;;-1.22;100.00
2000;BME280;1001;48.87406500;9.59633600;2023-01-30T07:16:45;95371.75;;;-1.18;100.00
2000;BME280;1001;48.87406500;9.59633600;2023-01-30T07:19:13;95363.28;;;-1.18;100.00
2000;BME280;1001;48.87406500;9.59633600;2023-01-30T07:21:40;95381.09;;;-1.17;100.00
2000;BME280;1001;48.87406500;9.59633600;2023-01-30T07:24:07;95387.81;;;-1.16;100.00
2000;BME280;1001;48.87406500;9.59633600;2023-01-30T07:26:33;95379.69;;;-1.11;100.00
2000;BME280;1001;48.87406500;9.59633600;2023-01-30T07:29:00;95378.56;;;-1.09;100.00
2000;BME280;1001;48.87406500;9.59633600;2023-01-30T07:31:27;95385.00;;;-1.05;100.00
2000;BME280;1001;48.87406500;9.59633600;2023-01-30T07:33:53;95391.75;;;-1.04;100.00
2000;BME280;1001;48.87406500;9.59633600;2023-01-30T07:36:21;95385.38;;;-1.00;100.00
2000;BME280;1001;48.87406500;9.59633600;2023-01-30T07:38:48;95390.16;;;-1.05;100.00
2000;BME280;1001;48.87406500;9.59633600;2023-01-30T07:41:14;95393.19;;;-1.01;100.00
2000;BME280;1001;48.87406500;9.59633600;2023-01-30T07:43:41;95388.88;;;-1.01;100.00
2000;BME280;1001;48.87406500;9.59633600;2023-01-30T07:46:07;95384.56;;;-1.00;100.00
2000;BME280;1001;48.87406500;9.59633600;2023-01-30T07:48:34;95380.59;;;-0.95;100.00
2000;BME280;1001;48.87406500;9.59633600;2023-01-30T07:51:00;95375.94;;;-0.91;100.00
2000;BME280;1001;48.87406500;9.59633600;2023-01-30T07:53:28;95384.91;;;-0.95;100.00
2000;BME280;1001;48.87406500;9.59633600;2023-01-30T07:55:55;95383.00;;;-0.93;100.00
2000;BME280;1001;48.87406500;9.59633600;2023-01-30T07:58:21;95388.16;;;-0.85;100.00
2000;BME280;1001;48.87406500;9.59633600;2023-01-30T08:00:48;95383.19;;;-0.87;100.00
2000;BME280;1001;48.87406500;9.59633600;2023-01-30T08:03:15;95387.06;;;-0.83;100.00
2000;BME280;1001;48.87406500;9.59633600;2023-01-30T08:05:44;95380.16;;;-0.82;100.00
2000;BME280;1001;48.87406500;9.59633600;2023-01-30T08:08:11;95368.50;;;-0.77;100.00
2000;BME280;1001;48.87406500;9.59633600;2023-01-30T08:10:39;95363.19;;;-0.75;100.00
2000;BME280;1001;48.87406500;9.59633600;2023-01-30T08:13:05;95370.31;;;-0.69;100.00
2000;BME280;1001;48.87406500;9.59633600;2023-01-30T08:15:32;95378.47;;;-0.74;100.00
2000;BME280;1001;48.87406500;9.59633600;2023-01-30T08:17:59;95386.47;;;-0.77;100.00
2000;BME280;1001;48.87406500;9.59633600;2023-01-30T08:20:26;95397.03;;;-0.80;100.00
2000;BME280;1001;48.87406500;9.59633600;2023-01-30T08:22:53;95403.50;;;-0.68;100.00
2000;BME280;1001;48.87406500;9.59633600;2023-01-30T08:25:20;95395.81;;;-0.68;100.00
2000;BME280;1001;48.87406500;9.59633600;2023-01-30T08:27:48;95361.44;;;-0.75;100.00
2000;BME280;1001;48.87406500;9.59633600;2023-01-30T08:30:17;95359.81;;;-0.76;100.00
2000;BME280;1001;48.87406500;9.59633600;2023-01-30T08:32:43;95366.28;;;-0.72;100.00
2000;BME280;1001;48.87406500;9.59633600;2023-01-30T08:35:10;95339.16;;;-0.66;100.00
2000;BME280;1001;48.87406500;9.59633600;2023-01-30T08:37:38;95316.28;;;-0.51;100.00
2000;BME280;1001;48.87406500;9.59633600;2023-01-30T08:40:05;95319.22;;;-0.38;100.00
2000;BME280;1001;48.87406500;9.59633600;2023-01-30T08:42:32;95323.72;;;-0.32;100.00
2000;BME280;1001;48.87406500;9.59633600;2023-01-30T08:45:00;95344.84;;;-0.46;100.00
2000;BME280;1001;48.87406500;9.59633600;2023-01-30T08:47:27;95347.25;;;-0.45;100.00
2000;BME280;1001;48.87406500;9.59633600;2023-01-30T08:49:53;95347.94;;;-0.43;100.00
2000;BME280;1001;48.87406500;9.59633600;2023-01-30T08:52:20;95331.72;;;-0.35;100.00
2000;BME280;1001;48.87406500;9.59633600;2023-01-30T08:54:47;95339.63;;;-0.29;100.00
2000;BME280;1001;48.87406500;9.59633600;2023-01-30T08:57:14;95334.66;;;-0.22;100.00
2000;BME280;1001;48.87406500;9.59633600;2023-01-30T08:59:40;95342.06;;;-0.19;100.00
2000;BME280;1001;48.87406500;9.59633600;2023-01-30T09:02:09;95324.06;;;-0.27;100.00
2000;BME280;1001;48.87406500;9.59633600;2023-01-30T09:04:36;95322.13;;;-0.33;100.00
2000;BME280;1001;48.87406500;9.59633600;2023-01-30T09:07:03;95307.16;;;-0.38;100.00
2000;BME280;1001;48.87406500;9.59633600;2023-01-30T09:09:30;95295.13;;;-0.37;100.00
2000;BME280;1001;48.87406500;9.59633600;2023-01-30T09:11:56;95307.00;;;-0.36;100.00
2000;BME280;1001;48.87406500;9.59633600;2023-01-30T09:14:23;95305.25;;;-0.36;100.00
2000;BME280;1001;48.87406500;9.59633600;2023-01-30T09:16:50;95309.59;;;-0.36;100.00
2000;BME280;1001;48.87406500;9.59633600;2023-01-30T09:19:21;95304.63;;;-0.30;100.00
2000;BME280;1001;48.87406500;9.59633600;2023-01-30T09:21:47;95292.41;;;-0.28;100.00
2000;BME280;1001;48.87406500;9.59633600;2023-01-30T09:24:14;95301.59;;;-0.17;100.00
2000;BME280;1001;48.87406500;9.59633600;2023-01-30T09:26:41;95325.19;;;-0.14;100.00
2000;BME280;1001;48.87406500;9.59633600;2023-01-30T09:29:09;95313.31;;;-0.07;100.00
2000;BME280;1001;48.87406500;9.59633600;2023-01-30T09:31:36;95317.22;;;-0.03;100.00
2000;BME280;1001;48.87406500;9.59633600;2023-01-30T09:34:02;95313.97;;;0.04;100.00
2000;BME280;1001;48.87406500;9.59633600;2023-01-30T09:36:30;95318.50;;;0.18;100.00
2000;BME280;1001;48.87406500;9.59633600;2023-01-30T09:38:57;95312.53;;;0.17;100.00
2000;BME280;1001;48.87406500;9.59633600;2023-01-30T09:41:39;95303.06;;;0.18;100.00
2000;BME280;1001;48.87406500;9.59633600;2023-01-30T09:44:25;95292.13;;;0.32;100.00
2000;BME280;1001;48.87406500;9.59633600;2023-01-30T09:46:59;95295.38;;;0.26;100.00
2000;BME280;1001;48.87406500;9.59633600;2023-01-30T09:49:35;95274.81;;;0.26;100.00
2000;BME280;1001;48.87406500;9.59633600;2023-01-30T09:52:15;95274.31;;;0.30;100.00
2000;BME280;1001;48.87406500;9.59633600;2023-01-30T09:54:44;95270.28;;;0.28;100.00
2000;BME280;1001;48.87406500;9.59633600;2023-01-30T09:57:20;95275.41;;;0.36;100.00
2000;BME280;1001;48.87406500;9.59633600;2023-01-30T09:59:54;95256.47;;;0.29;100.00
2000;BME280;1001;48.87406500;9.59633600;2023-01-30T10:02:33;95260.66;;;0.38;100.00
2000;BME280;1001;48.87406500;9.59633600;2023-01-30T10:05:01;95250.53;;;0.28;100.00
2000;BME280;1001;48.87406500;9.59633600;2023-01-30T10:07:38;95264.50;;;0.18;100.00
2000;BME280;1001;48.87406500;9.59633600;2023-01-30T10:10:16;95268.22;;;0.23;100.00
2000;BME280;1001;48.87406500;9.59633600;2023-01-30T10:12:53;95259.19;;;0.27;100.00
2000;BME280;1001;48.87406500;9.59633600;2023-01-30T10:15:38;95246.84;;;0.23;100.00
2000;BME280;1001;48.87406500;9.59633600;2023-01-30T10:18:27;95237.00;;;0.34;100.00
2000;BME280;1001;48.87406500;9.59633600;2023-01-30T10:21:04;95243.78;;;0.35;100.00
2000;BME280;1001;48.87406500;9.59633600;2023-01-30T10:23:51;95237.66;;;0.36;100.00
2000;BME280;1001;48.87406500;9.59633600;2023-01-30T10:26:24;95246.81;;;0.47;100.00
2000;BME280;1001;48.87406500;9.59633600;2023-01-30T10:28:56;95238.91;;;0.48;100.00
2000;BME280;1001;48.87406500;9.59633600;2023-01-30T10:31:27;95248.56;;;0.54;100.00
2000;BME280;1001;48.87406500;9.59633600;2023-01-30T10:33:56;95240.84;;;0.54;100.00
2000;BME280;1001;48.87406500;9.59633600;2023-01-30T10:36:31;95237.13;;;0.65;100.00
2000;BME280;1001;48.87406500;9.59633600;2023-01-30T10:39:01;95259.28;;;0.74;100.00
2000;BME280;1001;48.87406500;9.59633600;2023-01-30T10:41:33;95260.09;;;0.75;100.00
2000;BME280;1001;48.87406500;9.59633600;2023-01-30T10:44:04;95257.50;;;0.83;100.00
2000;BME280;1001;48.87406500;9.59633600;2023-01-30T10:46:47;95247.53;;;0.80;100.00
2000;BME280;1001;48.87406500;9.59633600;2023-01-30T10:49:18;95244.13;;;0.87;100.00
2000;BME280;1001;48.87406500;9.59633600;2023-01-30T10:51:56;95233.00;;;0.95;100.00
2000;BME280;1001;48.87406500;9.59633600;2023-01-30T10:54:34;95241.84;;;1.00;100.00
2000;BME280;1001;48.87406500;9.59633600;2023-01-30T10:57:11;95241.19;;;0.98;100.00
2000;BME280;1001;48.87406500;9.59633600;2023-01-30T10:59:45;95244.34;;;1.16;100.00
2000;BME280;1001;48.87406500;9.59633600;2023-01-30T11:02:23;95249.16;;;1.19;100.00
2000;BME280;1001;48.87406500;9.59633600;2023-01-30T11:04:57;95250.50;;;1.07;100.00
2000;BME280;1001;48.87406500;9.59633600;2023-01-30T11:07:24;95247.53;;;1.18;100.00
2000;BME280;1001;48.87406500;9.59633600;2023-01-30T11:09:52;95250.28;;;1.17;100.00
2000;BME280;1001;48.87406500;9.59633600;2023-01-30T11:12:19;95249.16;;;1.19;100.00
2000;BME280;1001;48.87406500;9.59633600;2023-01-30T11:14:52;95249.91;;;1.28;100.00
2000;BME280;1001;48.87406500;9.59633600;2023-01-30T11:17:20;95246.69;;;1.34;100.00
2000;BME280;1001;48.87406500;9.59633600;2023-01-30T11:19:54;95238.75;;;1.44;100.00
2000;BME280;1001;48.87406500;9.59633600;2023-01-30T11:22:23;95238.13;;;1.42;100.00
2000;BME280;1001;48.87406500;9.59633600;2023-01-30T11:25:00;95241.81;;;1.39;100.00
2000;BME280;1001;48.87406500;9.59633600;2023-01-30T11:27:29;95231.53;;;1.39;100.00
2000;BME280;1001;48.87406500;9.59633600;2023-01-30T11:30:05;95230.22;;;1.43;100.00
2000;BME280;1001;48.87406500;9.59633600;2023-01-30T11:32:32;95244.50;;;1.54;100.00
2000;BME280;1001;48.87406500;9.59633600;2023-01-30T11:35:19;95244.91;;;1.34;100.00
2000;BME280;1001;48.87406500;9.59633600;2023-01-30T11:37:46;95251.28;;;1.47;100.00
2000;BME280;1001;48.87406500;9.59633600;2023-01-30T11:40:23;95249.50;;;1.47;100.00
2000;BME280;1001;48.87406500;9.59633600;2023-01-30T11:42:52;95244.72;;;1.44;100.00
2000;BME280;1001;48.87406500;9.59633600;2023-01-30T11:45:25;95246.41;;;1.52;100.00
2000;BME280;1001;48.87406500;9.59633600;2023-01-30T11:47:56;95235.78;;;1.55;100.00
2000;BME280;1001;48.87406500;9.59633600;2023-01-30T11:50:26;95244.19;;;1.49;100.00
2000;BME280;1001;48.87406500;9.59633600;2023-01-30T11:52:54;95246.69;;;1.34;100.00